sensor_id;sensor_type;location;lat;lon;timestamp;temperature;humidity
73939;DHT22;62291;47.554;8.504;2023-08-06T00:00:05;16.00;99.90
73939;DHT22;62291;47.554;8.504;2023-08-06T00:02:31;15.90;99.90
73939;DHT22;62291;47.554;8.504;2023-08-06T00:04:56;15.80;99.90
73939;DHT22;62291;47.554;8.504;2023-08-06T00:07:22;15.80;99.90
73939;DHT22;62291;47.554;8.504;2023-08-06T00:09:48;15.70;99.90
73939;DHT22;62291;47.554;8.504;2023-08-06T00:12:14;15.70;99.90
73939;DHT22;62291;47.554;8.504;2023-08-06T00:14:40;15.50;99.90
73939;DHT22;62291;47.554;8.504;2023-08-06T00:17:05;15.50;99.90
73939;DHT22;62291;47.554;8.504;2023-08-06T00:19:32;15.40;99.90
73939;DHT22;62291;47.554;8.504;2023-08-06T00:21:57;15.40;99.90
73939;DHT22;62291;47.554;8.504;2023-08-06T00:24:23;15.20;99.90
73939;DHT22;62291;47.554;8.504;2023-08-06T00:26:49;15.20;99.90
73939;DHT22;62291;47.554;8.504;2023-08-06T00:29:15;15.10;99.90
73939;DHT22;62291;47.554;8.504;2023-08-06T00:31:40;15.00;99.90
73939;DHT22;62291;47.554;8.504;2023-08-06T00:34:06;14.90;99.90
73939;DHT22;62291;47.554;8.504;2023-08-06T00:36:32;14.90;99.90
73939;DHT22;62291;47.554;8.504;2023-08-06T00:38:57;14.80;99.90
73939;DHT22;62291;47.554;8.504;2023-08-06T00:41:23;14.80;99.90
73939;DHT22;62291;47.554;8.504;2023-08-06T00:43:49;14.60;99.90
73939;DHT22;62291;47.554;8.504;2023-08-06T00:46:14;14.50;99.90
73939;DHT22;62291;47.554;8.504;2023-08-06T00:48:41;14.40;99.90
73939;DHT22;62291;47.554;8.504;2023-08-06T00:51:09;14.40;99.90
73939;DHT22;62291;47.554;8.504;2023-08-06T00:53:37;14.40;99.90
73939;DHT22;62291;47.554;8.504;2023-08-06T00:56:03;14.30;99.90
73939;DHT22;62291;47.554;8.504;2023-08-06T00:58:29;14.30;99.90
73939;DHT22;62291;47.554;8.504;2023-08-06T01:00:55;14.30;99.90
73939;DHT22;62291;47.554;8.504;2023-08-06T01:03:21;14.20;99.90
73939;DHT22;62291;47.554;8.504;2023-08-06T01:05:47;14.00;99.90
73939;DHT22;62291;47.554;8.504;2023-08-06T01:10:58;13.80;99.90
73939;DHT22;62291;47.554;8.504;2023-08-06T01:13:43;13.80;99.90
73939;DHT22;62291;47.554;8.504;2023-08-06T01:16:15;13.70;99.90
73939;DHT22;62291;47.554;8.504;2023-08-06T01:18:42;13.60;99.90
73939;DHT22;62291;47.554;8.504;2023-08-06T01:21:18;13.60;99.90
73939;DHT22;62291;47.554;8.504;2023-08-06T01:23:45;13.60;99.90
73939;DHT22;62291;47.554;8.504;2023-08-06T01:26:19;13.70;99.90
73939;DHT22;62291;47.554;8.504;2023-08-06T01:29:02;13.70;99.90
73939;DHT22;62291;47.554;8.504;2023-08-06T01:31:32;13.60;99.90
73939;DHT22;62291;47.554;8.504;2023-08-06T01:34:01;13.60;99.90
73939;DHT22;62291;47.554;8.504;2023-08-06T01:36:28;13.60;99.90
73939;DHT22;62291;47.554;8.504;2023-08-06T01:38:55;13.60;99.90
73939;DHT22;62291;47.554;8.504;2023-08-06T01:41:22;13.70;99.90
73939;DHT22;62291;47.554;8.504;2023-08-06T01:43:48;13.70;99.90
73939;DHT22;62291;47.554;8.504;2023-08-06T01:46:14;13.80;99.90
73939;DHT22;62291;47.554;8.504;2023-08-06T01:48:40;13.90;99.90
73939;DHT22;62291;47.554;8.504;2023-08-06T01:51:06;14.00;99.90
73939;DHT22;62291;47.554;8.504;2023-08-06T01:53:32;14.00;99.90
73939;DHT22;62291;47.554;8.504;2023-08-06T01:55:58;14.20;99.90
73939;DHT22;62291;47.554;8.504;2023-08-06T01:58:24;14.30;99.90
73939;DHT22;62291;47.554;8.504;2023-08-06T02:00:49;14.50;99.90
73939;DHT22;62291;47.554;8.504;2023-08-06T02:03:15;14.60;99.90
73939;DHT22;62291;47.554;8.504;2023-08-06T02:05:41;14.50;99.90
73939;DHT22;62291;47.554;8.504;2023-08-06T02:08:07;14.50;99.90
73939;DHT22;62291;47.554;8.504;2023-08-06T02:10:33;14.60;99.90
73939;DHT22;62291;47.554;8.504;2023-08-06T02:12:59;14.70;99.90
73939;DHT22;62291;47.554;8.504;2023-08-06T02:15:25;14.60;99.90
73939;DHT22;62291;47.554;8.504;2023-08-06T02:17:51;14.60;99.90
73939;DHT22;62291;47.554;8.504;2023-08-06T02:20:16;14.60;99.90
73939;DHT22;62291;47.554;8.504;2023-08-06T02:22:42;14.60;99.90
73939;DHT22;62291;47.554;8.504;2023-08-06T02:25:08;14.50;99.90
73939;DHT22;62291;47.554;8.504;2023-08-06T02:27:34;14.50;99.90
73939;DHT22;62291;47.554;8.504;2023-08-06T02:30:00;14.60;99.90
73939;DHT22;62291;47.554;8.504;2023-08-06T02:32:26;14.60;99.90
73939;DHT22;62291;47.554;8.504;2023-08-06T02:34:51;14.60;99.90
73939;DHT22;62291;47.554;8.504;2023-08-06T02:37:17;14.60;99.90
73939;DHT22;62291;47.554;8.504;2023-08-06T02:39:43;14.60;99.90
73939;DHT22;62291;47.554;8.504;2023-08-06T02:42:09;14.70;99.90
73939;DHT22;62291;47.554;8.504;2023-08-06T02:44:35;14.70;99.90
73939;DHT22;62291;47.554;8.504;2023-08-06T02:47:01;14.80;99.90
73939;DHT22;62291;47.554;8.504;2023-08-06T02:49:27;14.80;99.90
73939;DHT22;62291;47.554;8.504;2023-08-06T02:51:53;14.90;99.90
73939;DHT22;62291;47.554;8.504;2023-08-06T02:54:19;15.00;99.90
73939;DHT22;62291;47.554;8.504;2023-08-06T02:56:45;15.10;99.90
73939;DHT22;62291;47.554;8.504;2023-08-06T02:59:12;15.20;99.90
73939;DHT22;62291;47.554;8.504;2023-08-06T03:01:38;15.30;99.90
73939;DHT22;62291;47.554;8.504;2023-08-06T03:04:04;15.30;99.90
73939;DHT22;62291;47.554;8.504;2023-08-06T03:06:30;15.40;99.90
73939;DHT22;62291;47.554;8.504;2023-08-06T03:08:56;15.50;99.90
73939;DHT22;62291;47.554;8.504;2023-08-06T03:11:22;15.50;99.90
73939;DHT22;62291;47.554;8.504;2023-08-06T03:13:48;15.50;99.90
73939;DHT22;62291;47.554;8.504;2023-08-06T03:16:14;15.60;99.90
73939;DHT22;62291;47.554;8.504;2023-08-06T03:18:40;15.60;99.90
73939;DHT22;62291;47.554;8.504;2023-08-06T03:21:06;15.60;99.90
73939;DHT22;62291;47.554;8.504;2023-08-06T03:23:31;15.50;99.90
73939;DHT22;62291;47.554;8.504;2023-08-06T03:26:03;15.50;99.90
73939;DHT22;62291;47.554;8.504;2023-08-06T03:28:29;15.50;99.90
73939;DHT22;62291;47.554;8.504;2023-08-06T03:31:02;15.50;99.90
73939;DHT22;62291;47.554;8.504;2023-08-06T03:33:28;15.50;99.90
73939;DHT22;62291;47.554;8.504;2023-08-06T03:35:54;15.50;99.90
73939;DHT22;62291;47.554;8.504;2023-08-06T03:38:19;15.60;99.90
73939;DHT22;62291;47.554;8.504;2023-08-06T03:40:46;15.60;99.90
73939;DHT22;62291;47.554;8.504;2023-08-06T03:43:12;15.60;99.90
73939;DHT22;62291;47.554;8.504;2023-08-06T03:45:38;15.60;99.90
73939;DHT22;62291;47.554;8.504;2023-08-06T03:48:04;15.70;99.90
73939;DHT22;62291;47.554;8.504;2023-08-06T03:50:29;15.70;99.90
73939;DHT22;62291;47.554;8.504;2023-08-06T03:52:55;15.70;99.90
73939;DHT22;62291;47.554;8.504;2023-08-06T03:55:21;15.70;99.90
73939;DHT22;62291;47.554;8.504;2023-08-06T03:57:47;15.70;99.90
73939;DHT22;62291;47.554;8.504;2023-08-06T04:00:13;15.60;99.90
73939;DHT22;62291;47.554;8.504;2023-08-06T04:02:38;15.70;99.90
73939;DHT22;62291;47.554;8.504;2023-08-06T04:05:05;15.70;99.90
73939;DHT22;62291;47.554;8.504;2023-08-06T04:07:30;15.50;99.90
73939;DHT22;62291;47.554;8.504;2023-08-06T04:10:01;15.30;99.90
73939;DHT22;62291;47.554;8.504;2023-08-06T04:12:27;15.10;99.90
73939;DHT22;62291;47.554;8.504;2023-08-06T04:14:54;14.90;99.90
73939;DHT22;62291;47.554;8.504;2023-08-06T04:17:21;14.70;99.90
73939;DHT22;62291;47.554;8.504;2023-08-06T04:19:49;14.50;99.90
73939;DHT22;62291;47.554;8.504;2023-08-06T04:22:15;14.20;99.90
73939;DHT22;62291;47.554;8.504;2023-08-06T04:24:41;14.00;99.90
73939;DHT22;62291;47.554;8.504;2023-08-06T04:27:09;13.80;99.90
73939;DHT22;62291;47.554;8.504;2023-08-06T04:29:34;13.70;99.90
73939;DHT22;62291;47.554;8.504;2023-08-06T04:32:00;13.60;99.90
73939;DHT22;62291;47.554;8.504;2023-08-06T04:34:26;13.50;99.90
73939;DHT22;62291;47.554;8.504;2023-08-06T04:36:51;13.40;99.90
73939;DHT22;62291;47.554;8.504;2023-08-06T04:39:17;13.30;99.90
73939;DHT22;62291;47.554;8.504;2023-08-06T04:41:43;13.20;99.90
73939;DHT22;62291;47.554;8.504;2023-08-06T04:44:08;13.20;99.90
73939;DHT22;62291;47.554;8.504;2023-08-06T04:46:34;13.20;99.90
73939;DHT22;62291;47.554;8.504;2023-08-06T04:49:00;13.20;99.90
73939;DHT22;62291;47.554;8.504;2023-08-06T04:51:25;13.20;99.90
73939;DHT22;62291;47.554;8.504;2023-08-06T04:53:51;13.10;99.90
73939;DHT22;62291;47.554;8.504;2023-08-06T04:56:17;13.10;99.90
73939;DHT22;62291;47.554;8.504;2023-08-06T04:58:42;13.20;99.90
73939;DHT22;62291;47.554;8.504;2023-08-06T05:01:08;13.30;99.90
73939;DHT22;62291;47.554;8.504;2023-08-06T05:03:33;13.20;99.90
73939;DHT22;62291;47.554;8.504;2023-08-06T05:05:59;13.20;99.90
73939;DHT22;62291;47.554;8.504;2023-08-06T05:08:25;13.30;99.90
73939;DHT22;62291;47.554;8.504;2023-08-06T05:10:50;13.30;99.90
73939;DHT22;62291;47.554;8.504;2023-08-06T05:13:16;13.40;99.90
73939;DHT22;62291;47.554;8.504;2023-08-06T05:15:42;13.30;99.90
73939;DHT22;62291;47.554;8.504;2023-08-06T05:18:09;13.30;99.90
73939;DHT22;62291;47.554;8.504;2023-08-06T05:20:39;13.30;99.90
73939;DHT22;62291;47.554;8.504;2023-08-06T05:23:05;13.30;99.90
73939;DHT22;62291;47.554;8.504;2023-08-06T05:25:30;13.30;99.90
73939;DHT22;62291;47.554;8.504;2023-08-06T05:27:56;13.40;99.90
73939;DHT22;62291;47.554;8.504;2023-08-06T05:30:22;13.40;99.90
73939;DHT22;62291;47.554;8.504;2023-08-06T05:32:47;13.50;99.90
73939;DHT22;62291;47.554;8.504;2023-08-06T05:35:13;13.60;99.90
73939;DHT22;62291;47.554;8.504;2023-08-06T05:37:39;13.60;99.90
73939;DHT22;62291;47.554;8.504;2023-08-06T05:40:05;13.60;99.90
73939;DHT22;62291;47.554;8.504;2023-08-06T05:42:30;13.60;99.90
73939;DHT22;62291;47.554;8.504;2023-08-06T05:44:56;13.70;99.90
73939;DHT22;62291;47.554;8.504;2023-08-06T05:47:22;13.70;99.90
73939;DHT22;62291;47.554;8.504;2023-08-06T05:49:47;13.70;99.90
73939;DHT22;62291;47.554;8.504;2023-08-06T05:52:13;13.80;99.90
73939;DHT22;62291;47.554;8.504;2023-08-06T05:54:39;13.90;99.90
73939;DHT22;62291;47.554;8.504;2023-08-06T05:57:06;14.00;99.90
73939;DHT22;62291;47.554;8.504;2023-08-06T05:59:32;14.10;99.90
73939;DHT22;62291;47.554;8.504;2023-08-06T06:01:57;14.30;99.90
73939;DHT22;62291;47.554;8.504;2023-08-06T06:04:23;14.50;99.90
73939;DHT22;62291;47.554;8.504;2023-08-06T06:06:49;15.30;99.90
73939;DHT22;62291;47.554;8.504;2023-08-06T06:09:14;16.50;99.90
73939;DHT22;62291;47.554;8.504;2023-08-06T06:11:40;16.50;99.90
73939;DHT22;62291;47.554;8.504;2023-08-06T06:14:06;16.40;99.90
73939;DHT22;62291;47.554;8.504;2023-08-06T06:16:31;16.30;99.90
73939;DHT22;62291;47.554;8.504;2023-08-06T06:18:57;16.00;99.90
73939;DHT22;62291;47.554;8.504;2023-08-06T06:21:24;15.80;99.90
73939;DHT22;62291;47.554;8.504;2023-08-06T06:23:49;15.60;99.90
73939;DHT22;62291;47.554;8.504;2023-08-06T06:26:17;15.20;99.90
73939;DHT22;62291;47.554;8.504;2023-08-06T06:28:43;15.20;99.90
73939;DHT22;62291;47.554;8.504;2023-08-06T06:31:09;15.00;99.90
73939;DHT22;62291;47.554;8.504;2023-08-06T06:33:35;15.00;99.90
73939;DHT22;62291;47.554;8.504;2023-08-06T06:36:01;14.90;99.90
73939;DHT22;62291;47.554;8.504;2023-08-06T06:38:29;14.90;99.90
73939;DHT22;62291;47.554;8.504;2023-08-06T06:40:58;14.90;99.90
73939;DHT22;62291;47.554;8.504;2023-08-06T06:43:24;14.80;99.90
73939;DHT22;62291;47.554;8.504;2023-08-06T06:45:55;14.70;99.90
73939;DHT22;62291;47.554;8.504;2023-08-06T06:48:21;14.70;99.90
73939;DHT22;62291;47.554;8.504;2023-08-06T06:50:47;14.90;99.90
73939;DHT22;62291;47.554;8.504;2023-08-06T06:53:14;15.20;99.90
73939;DHT22;62291;47.554;8.504;2023-08-06T06:55:39;15.40;99.90
73939;DHT22;62291;47.554;8.504;2023-08-06T06:58:05;15.40;99.90
73939;DHT22;62291;47.554;8.504;2023-08-06T07:00:31;15.40;99.90
73939;DHT22;62291;47.554;8.504;2023-08-06T07:02:56;15.20;99.90
73939;DHT22;62291;47.554;8.504;2023-08-06T07:05:22;15.10;99.90
73939;DHT22;62291;47.554;8.504;2023-08-06T07:07:47;15.00;99.90
73939;DHT22;62291;47.554;8.504;2023-08-06T07:10:13;14.90;99.90
73939;DHT22;62291;47.554;8.504;2023-08-06T07:12:39;14.90;99.90
73939;DHT22;62291;47.554;8.504;2023-08-06T07:15:06;14.80;99.90
73939;DHT22;62291;47.554;8.504;2023-08-06T07:17:32;14.80;99.90
73939;DHT22;62291;47.554;8.504;2023-08-06T07:19:58;14.80;99.90
73939;DHT22;62291;47.554;8.504;2023-08-06T07:22:23;14.80;99.90
73939;DHT22;62291;47.554;8.504;2023-08-06T07:24:49;14.80;99.90
73939;DHT22;62291;47.554;8.504;2023-08-06T07:27:15;14.80;99.90
73939;DHT22;62291;47.554;8.504;2023-08-06T07:29:40;14.90;99.90
73939;DHT22;62291;47.554;8.504;2023-08-06T07:32:07;14.90;99.90
73939;DHT22;62291;47.554;8.504;2023-08-06T07:34:32;15.00;99.90
73939;DHT22;62291;47.554;8.504;2023-08-06T07:36:58;15.10;99.90
73939;DHT22;62291;47.554;8.504;2023-08-06T07:39:24;15.30;99.90
73939;DHT22;62291;47.554;8.504;2023-08-06T07:41:50;15.30;99.90
73939;DHT22;62291;47.554;8.504;2023-08-06T07:44:16;15.40;99.90
73939;DHT22;62291;47.554;8.504;2023-08-06T07:46:41;15.40;99.90
73939;DHT22;62291;47.554;8.504;2023-08-06T07:49:08;15.50;99.90
73939;DHT22;62291;47.554;8.504;2023-08-06T07:51:33;15.50;99.90
73939;DHT22;62291;47.554;8.504;2023-08-06T07:53:59;15.50;99.90
73939;DHT22;62291;47.554;8.504;2023-08-06T07:56:25;15.50;99.90
73939;DHT22;62291;47.554;8.504;2023-08-06T07:58:50;15.40;99.90
73939;DHT22;62291;47.554;8.504;2023-08-06T08:01:16;15.40;99.90
73939;DHT22;62291;47.554;8.504;2023-08-06T08:03:42;15.40;99.90
73939;DHT22;62291;47.554;8.504;2023-08-06T08:06:08;15.30;99.90
73939;DHT22;62291;47.554;8.504;2023-08-06T08:08:33;15.10;99.90
73939;DHT22;62291;47.554;8.504;2023-08-06T08:11:03;15.00;99.90
73939;DHT22;62291;47.554;8.504;2023-08-06T08:13:28;14.90;99.90
73939;DHT22;62291;47.554;8.504;2023-08-06T08:16:00;14.90;99.90
73939;DHT22;62291;47.554;8.504;2023-08-06T08:18:26;14.60;99.90
73939;DHT22;62291;47.554;8.504;2023-08-06T08:20:52;14.40;99.90
73939;DHT22;62291;47.554;8.504;2023-08-06T08:23:18;14.20;99.90
73939;DHT22;62291;47.554;8.504;2023-08-06T08:25:44;14.10;99.90
73939;DHT22;62291;47.554;8.504;2023-08-06T08:28:09;14.00;99.90
73939;DHT22;62291;47.554;8.504;2023-08-06T08:30:35;14.00;99.90
73939;DHT22;62291;47.554;8.504;2023-08-06T08:33:00;13.90;99.90
73939;DHT22;62291;47.554;8.504;2023-08-06T08:35:26;13.80;99.90
73939;DHT22;62291;47.554;8.504;2023-08-06T08:37:52;13.80;99.90
73939;DHT22;62291;47.554;8.504;2023-08-06T08:40:18;13.80;99.90
73939;DHT22;62291;47.554;8.504;2023-08-06T08:42:44;13.80;99.90
73939;DHT22;62291;47.554;8.504;2023-08-06T08:45:14;13.80;99.90
73939;DHT22;62291;47.554;8.504;2023-08-06T08:47:43;14.00;99.90
73939;DHT22;62291;47.554;8.504;2023-08-06T08:50:09;14.20;99.90
73939;DHT22;62291;47.554;8.504;2023-08-06T08:52:38;14.50;99.90
73939;DHT22;62291;47.554;8.504;2023-08-06T08:55:04;14.60;99.90
73939;DHT22;62291;47.554;8.504;2023-08-06T08:57:31;14.60;99.90
73939;DHT22;62291;47.554;8.504;2023-08-06T08:59:57;14.80;99.90
73939;DHT22;62291;47.554;8.504;2023-08-06T09:02:23;15.20;99.90
73939;DHT22;62291;47.554;8.504;2023-08-06T09:04:51;15.60;99.90
73939;DHT22;62291;47.554;8.504;2023-08-06T09:07:20;15.90;99.90
73939;DHT22;62291;47.554;8.504;2023-08-06T09:09:48;16.00;99.90
73939;DHT22;62291;47.554;8.504;2023-08-06T09:12:16;15.90;99.90
73939;DHT22;62291;47.554;8.504;2023-08-06T09:14:42;16.00;99.90
73939;DHT22;62291;47.554;8.504;2023-08-06T09:17:09;16.50;99.90
73939;DHT22;62291;47.554;8.504;2023-08-06T09:19:36;16.60;99.90
73939;DHT22;62291;47.554;8.504;2023-08-06T09:22:02;16.40;99.90
73939;DHT22;62291;47.554;8.504;2023-08-06T09:24:28;16.30;99.90
73939;DHT22;62291;47.554;8.504;2023-08-06T09:26:54;16.20;99.90
73939;DHT22;62291;47.554;8.504;2023-08-06T09:29:20;16.20;99.90
73939;DHT22;62291;47.554;8.504;2023-08-06T09:31:48;16.10;99.90
73939;DHT22;62291;47.554;8.504;2023-08-06T09:34:21;16.20;99.90
73939;DHT22;62291;47.554;8.504;2023-08-06T09:36:53;16.20;99.90
73939;DHT22;62291;47.554;8.504;2023-08-06T09:39:20;16.20;99.90
73939;DHT22;62291;47.554;8.504;2023-08-06T09:41:47;16.40;99.90
73939;DHT22;62291;47.554;8.504;2023-08-06T09:44:20;16.50;99.90
73939;DHT22;62291;47.554;8.504;2023-08-06T09:46:55;16.60;99.90
73939;DHT22;62291;47.554;8.504;2023-08-06T09:49:26;16.60;99.90
73939;DHT22;62291;47.554;8.504;2023-08-06T09:51:53;17.00;99.90
73939;DHT22;62291;47.554;8.504;2023-08-06T09:54:24;17.60;99.90
73939;DHT22;62291;47.554;8.504;2023-08-06T09:56:52;17.90;99.90
73939;DHT22;62291;47.554;8.504;2023-08-06T09:59:18;17.70;99.90
73939;DHT22;62291;47.554;8.504;2023-08-06T10:01:45;17.40;99.90
73939;DHT22;62291;47.554;8.504;2023-08-06T10:04:13;17.00;99.90
73939;DHT22;62291;47.554;8.504;2023-08-06T10:06:42;16.60;99.90
73939;DHT22;62291;47.554;8.504;2023-08-06T10:09:08;16.30;99.90
73939;DHT22;62291;47.554;8.504;2023-08-06T10:11:36;16.10;99.90
73939;DHT22;62291;47.554;8.504;2023-08-06T10:14:38;15.90;99.90
73939;DHT22;62291;47.554;8.504;2023-08-06T10:16:57;15.70;99.90
73939;DHT22;62291;47.554;8.504;2023-08-06T10:19:25;15.50;99.90
73939;DHT22;62291;47.554;8.504;2023-08-06T10:22:11;15.50;99.90
73939;DHT22;62291;47.554;8.504;2023-08-06T10:24:58;15.50;99.90
73939;DHT22;62291;47.554;8.504;2023-08-06T10:27:33;15.50;99.90
73939;DHT22;62291;47.554;8.504;2023-08-06T10:30:22;15.70;99.90
73939;DHT22;62291;47.554;8.504;2023-08-06T10:32:53;15.90;99.90
73939;DHT22;62291;47.554;8.504;2023-08-06T10:37:59;15.90;99.90
73939;DHT22;62291;47.554;8.504;2023-08-06T10:40:25;15.90;99.90
73939;DHT22;62291;47.554;8.504;2023-08-06T10:42:51;15.80;99.90
73939;DHT22;62291;47.554;8.504;2023-08-06T10:45:18;15.80;99.90
73939;DHT22;62291;47.554;8.504;2023-08-06T10:47:44;15.70;99.90
73939;DHT22;62291;47.554;8.504;2023-08-06T10:50:17;15.70;99.90
73939;DHT22;62291;47.554;8.504;2023-08-06T10:52:47;15.70;99.90
73939;DHT22;62291;47.554;8.504;2023-08-06T10:55:14;15.60;99.90
73939;DHT22;62291;47.554;8.504;2023-08-06T10:57:40;15.60;99.90
73939;DHT22;62291;47.554;8.504;2023-08-06T11:00:07;15.70;99.90
73939;DHT22;62291;47.554;8.504;2023-08-06T11:02:36;15.70;99.90
73939;DHT22;62291;47.554;8.504;2023-08-06T11:05:06;15.90;99.90
73939;DHT22;62291;47.554;8.504;2023-08-06T11:07:32;16.10;99.90
73939;DHT22;62291;47.554;8.504;2023-08-06T11:10:05;16.40;99.90
73939;DHT22;62291;47.554;8.504;2023-08-06T11:12:32;17.10;99.90
73939;DHT22;62291;47.554;8.504;2023-08-06T11:14:58;17.70;99.90
73939;DHT22;62291;47.554;8.504;2023-08-06T11:17:24;18.30;99.90
73939;DHT22;62291;47.554;8.504;2023-08-06T11:19:50;19.00;99.90
73939;DHT22;62291;47.554;8.504;2023-08-06T11:22:16;19.60;99.90
73939;DHT22;62291;47.554;8.504;2023-08-06T11:24:43;19.70;99.90
73939;DHT22;62291;47.554;8.504;2023-08-06T11:27:12;19.40;99.90
73939;DHT22;62291;47.554;8.504;2023-08-06T11:29:38;18.90;99.90
73939;DHT22;62291;47.554;8.504;2023-08-06T11:32:11;18.50;99.90
73939;DHT22;62291;47.554;8.504;2023-08-06T11:34:37;18.00;99.90
73939;DHT22;62291;47.554;8.504;2023-08-06T11:37:04;17.70;99.90
73939;DHT22;62291;47.554;8.504;2023-08-06T11:39:37;17.40;99.90
73939;DHT22;62291;47.554;8.504;2023-08-06T11:42:04;17.20;99.90
73939;DHT22;62291;47.554;8.504;2023-08-06T11:44:36;16.80;99.90
73939;DHT22;62291;47.554;8.504;2023-08-06T11:47:03;16.90;99.90
73939;DHT22;62291;47.554;8.504;2023-08-06T11:49:40;16.80;99.90
73939;DHT22;62291;47.554;8.504;2023-08-06T11:52:13;16.80;99.90
73939;DHT22;62291;47.554;8.504;2023-08-06T11:54:39;16.90;99.90
73939;DHT22;62291;47.554;8.504;2023-08-06T11:57:08;17.10;99.90
73939;DHT22;62291;47.554;8.504;2023-08-06T11:59:34;16.90;99.90
73939;DHT22;62291;47.554;8.504;2023-08-06T12:02:03;17.10;99.90
73939;DHT22;62291;47.554;8.504;2023-08-06T12:04:31;17.40;99.90
73939;DHT22;62291;47.554;8.504;2023-08-06T12:07:07;17.80;99.90
73939;DHT22;62291;47.554;8.504;2023-08-06T12:09:35;18.20;99.90
73939;DHT22;62291;47.554;8.504;2023-08-06T12:12:01;18.40;99.90
73939;DHT22;62291;47.554;8.504;2023-08-06T12:14:28;18.70;99.90
73939;DHT22;62291;47.554;8.504;2023-08-06T12:16:54;18.70;99.90
73939;DHT22;62291;47.554;8.504;2023-08-06T12:19:19;18.90;99.90
73939;DHT22;62291;47.554;8.504;2023-08-06T12:21:45;19.00;99.90
73939;DHT22;62291;47.554;8.504;2023-08-06T12:24:11;18.90;99.90
73939;DHT22;62291;47.554;8.504;2023-08-06T12:26:37;19.30;99.90
73939;DHT22;62291;47.554;8.504;2023-08-06T12:29:02;19.50;99.90
73939;DHT22;62291;47.554;8.504;2023-08-06T12:31:28;19.70;99.90
73939;DHT22;62291;47.554;8.504;2023-08-06T12:33:54;20.00;99.90
73939;DHT22;62291;47.554;8.504;2023-08-06T12:36:19;20.10;99.90
73939;DHT22;62291;47.554;8.504;2023-08-06T12:38:45;20.20;99.90
73939;DHT22;62291;47.554;8.504;2023-08-06T12:41:11;19.70;99.90
73939;DHT22;62291;47.554;8.504;2023-08-06T12:43:36;19.40;99.90
73939;DHT22;62291;47.554;8.504;2023-08-06T12:46:02;19.50;99.90
73939;DHT22;62291;47.554;8.504;2023-08-06T12:48:28;19.60;99.90
73939;DHT22;62291;47.554;8.504;2023-08-06T12:50:54;19.70;99.90
73939;DHT22;62291;47.554;8.504;2023-08-06T12:53:19;19.70;99.90
73939;DHT22;62291;47.554;8.504;2023-08-06T12:55:47;19.50;99.90
73939;DHT22;62291;47.554;8.504;2023-08-06T12:58:13;19.40;99.90
73939;DHT22;62291;47.554;8.504;2023-08-06T13:00:38;19.10;99.90
73939;DHT22;62291;47.554;8.504;2023-08-06T13:03:04;19.00;99.90
73939;DHT22;62291;47.554;8.504;2023-08-06T13:05:30;19.30;99.90
73939;DHT22;62291;47.554;8.504;2023-08-06T13:07:55;19.30;99.90
73939;DHT22;62291;47.554;8.504;2023-08-06T13:10:22;19.00;99.90
73939;DHT22;62291;47.554;8.504;2023-08-06T13:12:48;18.70;99.90
73939;DHT22;62291;47.554;8.504;2023-08-06T13:15:14;18.50;99.90
73939;DHT22;62291;47.554;8.504;2023-08-06T13:17:40;18.20;99.90
73939;DHT22;62291;47.554;8.504;2023-08-06T13:20:06;18.10;99.90
73939;DHT22;62291;47.554;8.504;2023-08-06T13:22:31;17.80;99.90
73939;DHT22;62291;47.554;8.504;2023-08-06T13:24:57;17.60;99.90
73939;DHT22;62291;47.554;8.504;2023-08-06T13:27:23;17.10;99.90
73939;DHT22;62291;47.554;8.504;2023-08-06T13:29:48;17.00;99.90
73939;DHT22;62291;47.554;8.504;2023-08-06T13:32:14;17.20;99.90
73939;DHT22;62291;47.554;8.504;2023-08-06T13:34:40;17.00;99.90
73939;DHT22;62291;47.554;8.504;2023-08-06T13:37:05;16.90;99.90
73939;DHT22;62291;47.554;8.504;2023-08-06T13:39:31;16.90;99.90
73939;DHT22;62291;47.554;8.504;2023-08-06T13:41:56;16.80;99.90
73939;DHT22;62291;47.554;8.504;2023-08-06T13:44:22;17.00;99.90
73939;DHT22;62291;47.554;8.504;2023-08-06T13:46:48;17.00;99.90
73939;DHT22;62291;47.554;8.504;2023-08-06T13:49:13;17.00;99.90
73939;DHT22;62291;47.554;8.504;2023-08-06T13:51:39;17.00;99.90
73939;DHT22;62291;47.554;8.504;2023-08-06T13:54:04;17.00;99.90
73939;DHT22;62291;47.554;8.504;2023-08-06T13:56:31;17.10;99.90
73939;DHT22;62291;47.554;8.504;2023-08-06T13:58:57;16.80;99.90
73939;DHT22;62291;47.554;8.504;2023-08-06T14:01:23;16.70;99.90
73939;DHT22;62291;47.554;8.504;2023-08-06T14:03:48;16.80;99.90
73939;DHT22;62291;47.554;8.504;2023-08-06T14:06:14;16.90;99.90
73939;DHT22;62291;47.554;8.504;2023-08-06T14:08:40;17.10;99.90
73939;DHT22;62291;47.554;8.504;2023-08-06T14:11:05;17.30;99.90
73939;DHT22;62291;47.554;8.504;2023-08-06T14:13:32;17.10;99.90
73939;DHT22;62291;47.554;8.504;2023-08-06T14:15:57;16.90;99.90
73939;DHT22;62291;47.554;8.504;2023-08-06T14:18:23;16.90;99.90
73939;DHT22;62291;47.554;8.504;2023-08-06T14:20:48;17.00;99.90
73939;DHT22;62291;47.554;8.504;2023-08-06T14:23:14;16.80;99.90
73939;DHT22;62291;47.554;8.504;2023-08-06T14:25:40;17.00;99.90
73939;DHT22;62291;47.554;8.504;2023-08-06T14:28:06;17.20;99.90
73939;DHT22;62291;47.554;8.504;2023-08-06T14:30:33;17.20;99.90
73939;DHT22;62291;47.554;8.504;2023-08-06T14:32:59;17.10;99.90
73939;DHT22;62291;47.554;8.504;2023-08-06T14:35:26;17.20;99.90
73939;DHT22;62291;47.554;8.504;2023-08-06T14:37:51;17.10;99.90
73939;DHT22;62291;47.554;8.504;2023-08-06T14:40:17;17.20;99.90
73939;DHT22;62291;47.554;8.504;2023-08-06T14:42:43;17.10;99.90
73939;DHT22;62291;47.554;8.504;2023-08-06T14:45:09;17.10;99.90
73939;DHT22;62291;47.554;8.504;2023-08-06T14:47:35;17.20;99.90
73939;DHT22;62291;47.554;8.504;2023-08-06T14:50:00;17.30;99.90
73939;DHT22;62291;47.554;8.504;2023-08-06T14:52:26;17.50;99.90
73939;DHT22;62291;47.554;8.504;2023-08-06T14:54:52;17.50;99.90
73939;DHT22;62291;47.554;8.504;2023-08-06T14:57:20;17.70;99.90
73939;DHT22;62291;47.554;8.504;2023-08-06T14:59:47;18.00;99.90
73939;DHT22;62291;47.554;8.504;2023-08-06T15:02:13;18.00;99.90
73939;DHT22;62291;47.554;8.504;2023-08-06T15:04:38;18.30;99.90
73939;DHT22;62291;47.554;8.504;2023-08-06T15:07:04;18.40;99.90
73939;DHT22;62291;47.554;8.504;2023-08-06T15:09:29;18.40;99.90
73939;DHT22;62291;47.554;8.504;2023-08-06T15:11:55;18.30;99.90
73939;DHT22;62291;47.554;8.504;2023-08-06T15:14:21;17.90;99.90
73939;DHT22;62291;47.554;8.504;2023-08-06T15:16:47;17.80;99.90
73939;DHT22;62291;47.554;8.504;2023-08-06T15:19:12;17.50;99.90
73939;DHT22;62291;47.554;8.504;2023-08-06T15:21:38;17.50;99.90
73939;DHT22;62291;47.554;8.504;2023-08-06T15:24:04;17.50;99.90
73939;DHT22;62291;47.554;8.504;2023-08-06T15:26:29;17.30;99.90
73939;DHT22;62291;47.554;8.504;2023-08-06T15:28:55;17.30;99.90
73939;DHT22;62291;47.554;8.504;2023-08-06T15:31:22;17.50;99.90